createdAt,value
2022-07-29T00:01:53.547Z,66.64
2022-07-29T00:04:21.610Z,67.26
2022-07-29T00:06:49.202Z,69.42
2022-07-29T00:09:16.512Z,70.26
2022-07-29T00:11:43.892Z,69.81
2022-07-29T00:14:11.197Z,70.98
2022-07-29T00:16:38.751Z,72.84
2022-07-29T00:19:06.061Z,73.86
2022-07-29T00:21:35.388Z,75.09
2022-07-29T00:24:02.627Z,73.15
2022-07-29T00:26:32.618Z,72.20
2022-07-29T00:29:31.809Z,69.64
2022-07-29T00:31:48.227Z,66.84
2022-07-29T00:34:34.322Z,67.12
2022-07-29T00:37:01.554Z,65.25
2022-07-29T00:39:28.840Z,64.01
2022-07-29T00:41:56.234Z,66.79
2022-07-29T00:44:23.508Z,67.61
2022-07-29T00:46:51.010Z,66.65
2022-07-29T00:49:18.475Z,66.77
2022-07-29T00:51:46.235Z,66.03
2022-07-29T00:54:14.161Z,65.38
2022-07-29T00:56:41.704Z,67.22
2022-07-29T00:59:08.963Z,65.27
2022-07-29T01:01:36.237Z,66.87
2022-07-29T01:04:03.861Z,67.28
2022-07-29T01:06:31.136Z,68.45
2022-07-29T01:08:59.552Z,69.22
2022-07-29T01:11:26.947Z,69.66
2022-07-29T01:13:54.580Z,69.60
2022-07-29T01:16:38.781Z,69.37
2022-07-29T01:19:34.287Z,68.33
2022-07-29T01:22:29.185Z,68.70
2022-07-29T01:25:33.991Z,70.55
2022-07-29T01:28:01.275Z,71.56
2022-07-29T01:30:33.537Z,72.08
2022-07-29T01:33:06.994Z,72.43
2022-07-29T01:35:42.008Z,72.80
2022-07-29T01:38:23.295Z,72.74
2022-07-29T01:40:54.532Z,72.20
2022-07-29T01:43:28.182Z,72.14
2022-07-29T01:46:02.793Z,72.82
2022-07-29T01:48:41.629Z,72.80
2022-07-29T01:51:21.363Z,71.46
2022-07-29T01:53:51.301Z,71.66
2022-07-29T01:56:20.916Z,72.79
2022-07-29T01:58:50.821Z,73.68
2022-07-29T02:01:19.871Z,73.94
2022-07-29T02:03:48.844Z,74.20
2022-07-29T02:06:20.372Z,74.31
2022-07-29T02:08:50.065Z,74.73
2022-07-29T02:11:17.864Z,75.32
2022-07-29T02:13:46.416Z,75.42
2022-07-29T02:16:16.215Z,75.65
2022-07-29T02:18:46.719Z,75.25
2022-07-29T02:21:16.486Z,74.94
2022-07-29T02:23:50.686Z,74.85
2022-07-29T02:26:21.368Z,74.65
2022-07-29T02:28:51.021Z,73.16
2022-07-29T02:31:20.571Z,74.48
2022-07-29T02:33:48.612Z,72.77
2022-07-29T02:36:17.500Z,73.59
2022-07-29T02:38:52.562Z,72.97
2022-07-29T02:41:21.690Z,72.28
2022-07-29T02:43:51.228Z,71.86
2022-07-29T02:46:29.477Z,72.96
2022-07-29T02:49:33.035Z,73.18
2022-07-29T02:52:03.794Z,73.49
2022-07-29T02:54:56.024Z,73.92
2022-07-29T02:57:34.061Z,73.66
2022-07-29T03:00:06.209Z,73.86
2022-07-29T03:02:45.888Z,74.18
2022-07-29T03:05:18.364Z,71.54
2022-07-29T03:07:50.699Z,72.41
2022-07-29T03:10:18.942Z,73.22
2022-07-29T03:12:47.133Z,73.18
2022-07-29T03:15:15.107Z,73.10
2022-07-29T03:17:43.937Z,70.10
2022-07-29T03:20:12.730Z,69.61
2022-07-29T03:22:44.628Z,70.48
2022-07-29T03:25:13.408Z,70.70
2022-07-29T03:27:41.076Z,71.75
2022-07-29T03:30:09.593Z,70.22
2022-07-29T03:32:37.443Z,70.11
2022-07-29T03:35:06.338Z,70.24
2022-07-29T03:37:34.511Z,71.01
2022-07-29T03:40:04.072Z,70.81
2022-07-29T03:42:34.521Z,70.83
2022-07-29T03:45:07.144Z,71.74
2022-07-29T03:47:50.822Z,71.89
2022-07-29T03:50:21.295Z,71.84
2022-07-29T03:52:49.494Z,71.56
2022-07-29T03:55:17.296Z,69.60
2022-07-29T03:57:46.665Z,71.54
2022-07-29T04:00:16.466Z,71.56
2022-07-29T04:02:49.344Z,72.54
2022-07-29T04:05:17.629Z,72.91
2022-07-29T04:07:49.006Z,73.65
2022-07-29T04:10:17.961Z,72.19
2022-07-29T04:12:57.566Z,71.71
2022-07-29T04:15:24.833Z,72.47
2022-07-29T04:17:52.118Z,73.18
2022-07-29T04:20:19.478Z,69.93
2022-07-29T04:22:46.724Z,69.21
2022-07-29T04:25:13.977Z,70.42
2022-07-29T04:28:01.111Z,71.65
2022-07-29T04:30:28.879Z,71.72
2022-07-29T04:32:56.344Z,71.90
2022-07-29T04:35:23.574Z,71.39
2022-07-29T04:37:52.081Z,71.42
2022-07-29T04:40:19.506Z,70.83
2022-07-29T04:42:47.884Z,71.12
2022-07-29T04:45:16.801Z,71.83
2022-07-29T04:47:50.046Z,70.99
2022-07-29T04:50:17.632Z,70.42
2022-07-29T04:52:45.159Z,70.76
2022-07-29T04:55:12.472Z,71.19
2022-07-29T04:57:39.795Z,71.98
2022-07-29T05:00:07.857Z,69.94
2022-07-29T05:02:35.164Z,71.30
2022-07-29T05:05:02.475Z,69.97
2022-07-29T05:07:29.690Z,69.41
2022-07-29T05:09:57.996Z,68.95
2022-07-29T05:12:25.943Z,67.75
2022-07-29T05:14:53.424Z,64.01
2022-07-29T05:17:20.682Z,62.10
2022-07-29T05:19:47.969Z,61.52
2022-07-29T05:22:15.190Z,61.42
2022-07-29T05:24:42.499Z,61.86
2022-07-29T05:27:10.373Z,61.76
2022-07-29T05:29:43.683Z,60.45
2022-07-29T05:32:13.369Z,61.33
2022-07-29T05:34:50.119Z,62.22
2022-07-29T05:37:21.815Z,63.28
2022-07-29T05:39:50.859Z,64.25
2022-07-29T05:42:27.899Z,61.59
2022-07-29T05:44:55.152Z,61.38
2022-07-29T05:47:22.937Z,60.96
2022-07-29T05:49:50.376Z,60.96
2022-07-29T05:52:17.629Z,60.90
2022-07-29T05:54:44.912Z,59.93
2022-07-29T05:57:19.786Z,61.20
2022-07-29T05:59:48.061Z,63.39
2022-07-29T06:02:16.001Z,64.30
2022-07-29T06:04:43.476Z,64.91
2022-07-29T06:07:11.083Z,64.46
2022-07-29T06:09:38.337Z,64.46
2022-07-29T06:12:05.918Z,63.31
2022-07-29T06:14:33.630Z,62.60
2022-07-29T06:17:00.877Z,64.63
2022-07-29T06:19:28.155Z,63.06
2022-07-29T06:21:55.535Z,62.52
2022-07-29T06:24:22.859Z,62.12
2022-07-29T06:26:50.170Z,62.45
2022-07-29T06:29:18.045Z,62.04
2022-07-29T06:31:45.455Z,60.91
2022-07-29T06:34:12.830Z,61.21
2022-07-29T06:36:41.151Z,61.13
2022-07-29T06:39:09.307Z,61.01
2022-07-29T06:41:38.863Z,59.86
2022-07-29T06:44:10.461Z,59.63
2022-07-29T06:46:39.064Z,59.22
2022-07-29T06:49:06.749Z,58.23
2022-07-29T06:51:34.905Z,57.63
2022-07-29T06:54:12.884Z,57.15
2022-07-29T06:56:42.594Z,55.18
2022-07-29T06:59:11.473Z,54.28
2022-07-29T07:01:41.176Z,56.27
2022-07-29T07:04:11.837Z,54.47
2022-07-29T07:06:39.994Z,54.60
2022-07-29T07:09:07.394Z,53.83
2022-07-29T07:11:35.291Z,54.68
2022-07-29T07:14:04.100Z,55.42
2022-07-29T07:16:42.127Z,55.08
2022-07-29T07:19:09.486Z,54.28
2022-07-29T07:21:36.745Z,52.95
2022-07-29T07:24:04.364Z,54.64
2022-07-29T07:26:31.785Z,53.15
2022-07-29T07:28:59.082Z,52.67
2022-07-29T07:31:26.385Z,53.12
2022-07-29T07:33:54.502Z,53.48
2022-07-29T07:36:22.147Z,52.70
2022-07-29T07:38:49.404Z,52.23
2022-07-29T07:41:16.740Z,53.58
2022-07-29T07:43:43.988Z,52.12
2022-07-29T07:46:11.295Z,52.54
2022-07-29T07:48:38.637Z,51.99
2022-07-29T07:51:05.948Z,52.80
2022-07-29T07:53:34.990Z,52.04
2022-07-29T07:56:11.386Z,51.57
2022-07-29T07:58:39.729Z,52.24
2022-07-29T08:01:07.700Z,51.99
2022-07-29T08:03:35.443Z,51.98
2022-07-29T08:06:04.325Z,51.82
2022-07-29T08:08:31.580Z,52.82
2022-07-29T08:11:01.212Z,51.02
2022-07-29T08:13:31.388Z,50.44
2022-07-29T08:16:01.290Z,50.44
2022-07-29T08:18:31.077Z,48.90
2022-07-29T08:20:59.189Z,50.48
2022-07-29T08:23:46.514Z,50.06
2022-07-29T08:26:17.279Z,49.49
2022-07-29T08:28:46.801Z,48.98
2022-07-29T08:31:14.854Z,48.97
2022-07-29T08:33:43.424Z,48.97
2022-07-29T08:36:10.867Z,48.58
2022-07-29T08:38:38.194Z,46.72
2022-07-29T08:41:05.633Z,47.61
2022-07-29T08:43:33.133Z,47.97
2022-07-29T08:46:01.472Z,47.07
2022-07-29T08:48:28.881Z,46.74
2022-07-29T08:50:57.481Z,47.74
2022-07-29T08:53:27.976Z,48.49
2022-07-29T08:55:56.111Z,46.04
2022-07-29T08:58:26.125Z,47.52
2022-07-29T09:00:55.979Z,48.08
2022-07-29T09:03:30.596Z,47.41
2022-07-29T09:06:02.329Z,46.57
2022-07-29T09:08:31.500Z,46.29
2022-07-29T09:10:59.431Z,45.79
2022-07-29T09:13:27.379Z,44.80
2022-07-29T09:15:54.976Z,44.91
2022-07-29T09:18:37.238Z,44.41
2022-07-29T09:21:24.881Z,45.45
2022-07-29T09:24:02.137Z,44.62
2022-07-29T09:26:31.852Z,42.60
2022-07-29T09:29:00.164Z,43.01
2022-07-29T09:31:36.210Z,42.46
2022-07-29T09:34:04.672Z,42.31
2022-07-29T09:36:32.055Z,41.09
2022-07-29T09:39:03.788Z,41.60
2022-07-29T09:41:54.602Z,42.66
2022-07-29T09:44:23.342Z,40.57
2022-07-29T09:47:08.145Z,40.05
2022-07-29T09:50:00.753Z,39.51
2022-07-29T09:52:29.689Z,38.67
2022-07-29T09:55:07.581Z,38.33
2022-07-29T09:57:34.905Z,39.01
2022-07-29T10:00:13.950Z,39.58
2022-07-29T10:02:44.908Z,38.60
2022-07-29T10:05:27.072Z,38.82
2022-07-29T10:08:04.630Z,40.23
2022-07-29T10:12:01.483Z,39.03
2022-07-29T10:14:30.648Z,39.20
2022-07-29T10:16:58.815Z,38.25
2022-07-29T10:19:26.277Z,37.17
2022-07-29T10:21:57.917Z,37.35
2022-07-29T10:24:29.287Z,37.06
2022-07-29T10:26:57.983Z,36.11
2022-07-29T10:29:52.234Z,37.05
2022-07-29T10:32:37.443Z,36.98
2022-07-29T10:35:13.436Z,36.95
2022-07-29T10:38:06.728Z,36.63
2022-07-29T10:41:08.904Z,36.24
2022-07-29T10:43:44.671Z,37.45
2022-07-29T10:46:15.527Z,36.07
2022-07-29T10:49:05.519Z,36.59
2022-07-29T10:51:57.806Z,35.18
2022-07-29T10:54:34.786Z,35.10
2022-07-29T10:57:14.497Z,36.03
2022-07-29T10:59:44.178Z,35.69
2022-07-29T11:02:42.699Z,34.49
2022-07-29T11:05:13.869Z,34.67
2022-07-29T11:08:21.218Z,34.43
2022-07-29T11:11:15.892Z,35.37
2022-07-29T11:13:44.829Z,34.53
2022-07-29T11:16:16.116Z,35.56
2022-07-29T11:19:11.533Z,35.55
2022-07-29T11:21:54.712Z,34.54
2022-07-29T11:24:33.361Z,34.38
2022-07-29T11:27:13.375Z,33.55
2022-07-29T11:29:58.503Z,34.13
2022-07-29T11:32:37.545Z,34.35
2022-07-29T11:35:36.986Z,34.79
2022-07-29T11:38:31.823Z,35.52
2022-07-29T11:41:30.115Z,34.04
2022-07-29T11:44:01.408Z,33.43
2022-07-29T11:46:53.868Z,33.31
2022-07-29T11:49:32.325Z,31.87
2022-07-29T11:54:57.866Z,32.30
2022-07-29T11:57:36.545Z,32.31
2022-07-29T12:03:04.079Z,31.93
2022-07-29T12:05:52.037Z,32.20
2022-07-29T12:07:02.431Z,33.04
2022-07-29T12:08:22.675Z,32.84
2022-07-29T12:10:51.659Z,32.56
2022-07-29T12:13:21.194Z,32.41
2022-07-29T12:15:59.993Z,32.29
2022-07-29T12:18:27.910Z,32.04
2022-07-29T12:21:05.665Z,31.89
2022-07-29T12:23:34.794Z,31.49
2022-07-29T12:26:11.133Z,32.76
2022-07-29T12:28:49.819Z,31.26
2022-07-29T12:31:41.887Z,32.06
2022-07-29T12:34:05.112Z,31.48
2022-07-29T12:36:33.428Z,32.46
2022-07-29T12:39:00.892Z,32.25
2022-07-29T12:41:31.575Z,32.07
2022-07-29T12:43:59.087Z,31.67
2022-07-29T12:46:26.529Z,32.07
2022-07-29T12:48:58.416Z,31.58
2022-07-29T12:51:34.517Z,31.61
2022-07-29T12:54:07.169Z,31.44
2022-07-29T12:56:43.564Z,30.51
2022-07-29T12:59:15.452Z,30.93
2022-07-29T13:01:44.291Z,30.49
2022-07-29T13:04:12.065Z,29.89
2022-07-29T13:06:45.894Z,29.15
2022-07-29T13:09:18.428Z,29.73
2022-07-29T13:11:48.741Z,30.07
2022-07-29T13:14:34.863Z,30.56
2022-07-29T13:17:06.278Z,30.66
2022-07-29T13:19:51.165Z,29.88
2022-07-29T13:22:20.552Z,30.38
2022-07-29T13:25:04.613Z,31.36
2022-07-29T13:27:34.648Z,31.74
2022-07-29T13:30:03.954Z,31.89
2022-07-29T13:32:31.736Z,33.19
2022-07-29T13:35:05.410Z,33.36
2022-07-29T13:37:36.915Z,32.88
2022-07-29T13:40:06.290Z,33.89
2022-07-29T13:42:34.246Z,34.05
2022-07-29T13:45:02.713Z,34.74
2022-07-29T13:47:32.529Z,35.26
2022-07-29T13:50:02.084Z,33.70
2022-07-29T13:52:29.866Z,33.44
2022-07-29T13:54:57.452Z,33.39
2022-07-29T13:57:25.136Z,32.83
2022-07-29T13:59:54.310Z,33.20
2022-07-29T14:02:25.293Z,32.32
2022-07-29T14:04:56.627Z,31.64
2022-07-29T14:07:24.304Z,31.09
2022-07-29T14:09:52.193Z,29.36
2022-07-29T14:12:20.229Z,29.04
2022-07-29T14:14:47.568Z,27.77
2022-07-29T14:17:15.776Z,26.18
2022-07-29T14:19:43.183Z,25.75
2022-07-29T14:22:11.008Z,25.64
2022-07-29T14:24:38.929Z,25.76
2022-07-29T14:27:07.715Z,25.72
2022-07-29T14:29:38.332Z,26.97
2022-07-29T14:32:08.041Z,29.59
2022-07-29T14:34:37.230Z,30.86
2022-07-29T14:37:06.578Z,31.29
2022-07-29T14:39:42.135Z,32.62
2022-07-29T14:42:12.438Z,33.79
2022-07-29T14:44:48.369Z,34.80
2022-07-29T14:47:15.886Z,35.01
2022-07-29T14:49:43.237Z,35.94
2022-07-29T14:52:13.941Z,37.41
2022-07-29T14:54:41.424Z,39.30
2022-07-29T14:57:08.687Z,38.83
2022-07-29T14:59:36.306Z,38.87
2022-07-29T15:02:04.042Z,39.23
2022-07-29T15:04:31.820Z,39.68
2022-07-29T15:06:59.136Z,41.86
2022-07-29T15:09:26.373Z,42.32
2022-07-29T15:12:31.678Z,41.30
2022-07-29T15:14:59.378Z,42.44
2022-07-29T15:17:26.721Z,42.92
2022-07-29T15:23:39.573Z,44.72
2022-07-29T15:26:09.147Z,50.18
2022-07-29T15:28:36.513Z,58.04
2022-07-29T15:31:04.883Z,58.94
2022-07-29T15:33:32.525Z,59.04
2022-07-29T15:35:59.938Z,62.12
2022-07-29T15:38:28.719Z,65.80
2022-07-29T15:40:57.379Z,67.65
2022-07-29T15:43:24.723Z,68.11
2022-07-29T15:46:12.855Z,67.00
2022-07-29T15:48:40.549Z,74.54
2022-07-29T15:51:07.818Z,75.38
2022-07-29T15:53:35.415Z,72.84
2022-07-29T15:56:03.038Z,72.33
2022-07-29T15:58:31.012Z,68.82
2022-07-29T16:00:58.801Z,68.44
2022-07-29T16:03:26.171Z,66.10
2022-07-29T16:05:53.380Z,70.75
2022-07-29T16:08:20.903Z,71.20
2022-07-29T16:10:48.171Z,75.04
2022-07-29T16:13:17.014Z,76.43
2022-07-29T16:15:46.331Z,79.93
2022-07-29T16:18:30.698Z,80.12
2022-07-29T16:20:58.487Z,82.25
2022-07-29T16:23:25.735Z,85.14
2022-07-29T16:26:01.199Z,82.48
2022-07-29T16:28:29.761Z,88.02
2022-07-29T16:30:57.452Z,87.97
2022-07-29T16:33:25.143Z,89.64
2022-07-29T16:35:52.796Z,90.77
2022-07-29T16:38:20.209Z,93.16
2022-07-29T16:40:47.621Z,90.49
2022-07-29T16:43:14.936Z,95.26
2022-07-29T16:45:45.899Z,97.09
2022-07-29T16:48:14.673Z,94.40
2022-07-29T16:50:43.278Z,94.27
2022-07-29T16:53:11.138Z,94.06
2022-07-29T16:55:38.661Z,93.40
2022-07-29T16:58:10.516Z,93.20
2022-07-29T17:00:38.484Z,92.05
2022-07-29T17:03:05.731Z,89.98
2022-07-29T17:05:50.308Z,93.19
2022-07-29T17:08:20.126Z,92.65
2022-07-29T17:10:47.614Z,94.78
2022-07-29T17:13:14.865Z,97.61
2022-07-29T17:15:45.197Z,96.63
2022-07-29T17:18:13.092Z,90.53
2022-07-29T17:20:42.042Z,91.74
2022-07-29T17:23:09.514Z,91.14
2022-07-29T17:25:36.743Z,90.69
2022-07-29T17:28:04.133Z,91.49
2022-07-29T17:30:31.335Z,90.21
2022-07-29T17:32:58.931Z,91.71
2022-07-29T17:35:44.599Z,92.71
2022-07-29T17:38:11.904Z,91.39
2022-07-29T17:40:39.176Z,92.48
2022-07-29T17:43:09.200Z,93.03
2022-07-29T17:45:49.901Z,94.60
2022-07-29T17:48:19.381Z,93.94
2022-07-29T17:50:47.942Z,93.45
2022-07-29T17:53:16.245Z,94.36
2022-07-29T17:55:45.707Z,96.44
2022-07-29T17:58:13.232Z,96.56
2022-07-29T18:00:41.025Z,96.72
2022-07-29T18:03:09.077Z,96.72
2022-07-29T18:05:36.731Z,99.42
2022-07-29T18:08:04.210Z,99.56
2022-07-29T18:10:31.524Z,96.35
2022-07-29T18:12:58.928Z,95.97
2022-07-29T18:15:26.419Z,96.54
2022-07-29T18:17:57.610Z,98.46
2022-07-29T18:20:26.424Z,98.90
2022-07-29T18:22:53.697Z,98.62
2022-07-29T18:25:21.002Z,100.00
2022-07-29T18:27:48.316Z,100.00
2022-07-29T18:30:16.130Z,100.00
2022-07-29T18:32:59.200Z,100.00
2022-07-29T18:35:31.666Z,100.00
2022-07-29T18:38:01.820Z,100.00
2022-07-29T18:40:30.200Z,100.00
2022-07-29T18:42:57.823Z,100.00
2022-07-29T18:45:28.643Z,100.00
2022-07-29T18:47:56.688Z,100.00
2022-07-29T18:50:29.415Z,100.00
2022-07-29T18:52:58.675Z,100.00
2022-07-29T18:55:26.624Z,100.00
2022-07-29T18:57:55.832Z,100.00
2022-07-29T19:00:25.286Z,100.00
2022-07-29T19:02:53.193Z,100.00
2022-07-29T19:05:21.065Z,100.00
2022-07-29T19:07:48.348Z,100.00
2022-07-29T19:10:15.604Z,100.00
2022-07-29T19:12:43.035Z,100.00
2022-07-29T19:15:10.802Z,100.00
2022-07-29T19:17:38.827Z,100.00
2022-07-29T19:20:07.649Z,100.00
2022-07-29T19:22:35.143Z,100.00
2022-07-29T19:25:02.497Z,100.00
2022-07-29T19:27:29.814Z,100.00
2022-07-29T19:29:59.387Z,97.13
2022-07-29T19:32:27.271Z,98.92
2022-07-29T19:35:13.231Z,100.00
2022-07-29T19:37:40.501Z,100.00
2022-07-29T19:40:08.200Z,100.00
2022-07-29T19:42:35.384Z,97.97
2022-07-29T19:45:02.677Z,95.37
2022-07-29T19:47:29.936Z,96.61
2022-07-29T19:49:57.235Z,97.03
2022-07-29T19:52:24.484Z,97.27
2022-07-29T19:54:51.864Z,99.71
2022-07-29T19:57:19.373Z,100.00
2022-07-29T19:59:46.609Z,100.00
2022-07-29T20:02:13.907Z,100.00
2022-07-29T20:04:42.902Z,99.08
2022-07-29T20:07:10.213Z,99.94
2022-07-29T20:09:39.986Z,100.00
2022-07-29T20:12:11.008Z,100.00
2022-07-29T20:14:38.452Z,100.00
2022-07-29T20:17:06.080Z,100.00
2022-07-29T20:19:33.373Z,100.00
2022-07-29T20:22:00.983Z,100.00
2022-07-29T20:24:28.331Z,98.78
2022-07-29T20:26:55.641Z,99.28
2022-07-29T20:29:22.992Z,100.00
2022-07-29T20:31:52.277Z,100.00
2022-07-29T20:34:24.188Z,100.00
2022-07-29T20:36:51.500Z,100.00
2022-07-29T20:39:20.993Z,100.00
2022-07-29T20:41:48.953Z,100.00
2022-07-29T20:44:18.793Z,100.00
2022-07-29T20:46:46.252Z,100.00
2022-07-29T20:49:13.561Z,100.00
2022-07-29T20:51:43.583Z,100.00
2022-07-29T20:54:11.845Z,100.00
2022-07-29T20:56:39.454Z,99.22
2022-07-29T20:59:06.875Z,100.00
2022-07-29T21:01:35.067Z,99.83
2022-07-29T21:04:03.085Z,100.00
2022-07-29T21:06:30.884Z,97.77
2022-07-29T21:08:59.660Z,99.17
2022-07-29T21:11:44.228Z,95.99
2022-07-29T21:14:23.163Z,99.04
2022-07-29T21:16:50.685Z,100.00
2022-07-29T21:19:17.911Z,100.00
2022-07-29T21:21:45.149Z,100.00
2022-07-29T21:24:12.475Z,100.00
2022-07-29T21:26:39.689Z,99.11
2022-07-29T21:29:06.937Z,100.00
2022-07-29T21:31:34.147Z,100.00
2022-07-29T21:34:01.386Z,99.23
2022-07-29T21:36:47.676Z,100.00
2022-07-29T21:39:15.859Z,98.16
2022-07-29T21:41:43.080Z,98.66
2022-07-29T21:44:10.326Z,100.00
2022-07-29T21:46:37.619Z,100.00
2022-07-29T21:49:05.018Z,96.92
2022-07-29T21:51:32.358Z,97.63
2022-07-29T21:53:59.651Z,99.43
2022-07-29T21:56:27.820Z,100.00
2022-07-29T21:58:56.107Z,100.00
2022-07-29T22:01:24.004Z,99.57
2022-07-29T22:03:51.432Z,98.38
2022-07-29T22:06:19.040Z,97.79
2022-07-29T22:08:46.310Z,99.52
2022-07-29T22:11:13.612Z,98.99
2022-07-29T22:13:40.836Z,98.09
2022-07-29T22:16:10.102Z,100.00
2022-07-29T22:18:37.400Z,100.00
2022-07-29T22:21:04.618Z,100.00
2022-07-29T22:23:31.832Z,100.00
2022-07-29T22:25:59.076Z,99.10
2022-07-29T22:28:26.279Z,100.00
2022-07-29T22:30:53.538Z,100.00
2022-07-29T22:33:20.851Z,100.00
2022-07-29T22:35:49.215Z,100.00
2022-07-29T22:38:17.748Z,98.17
2022-07-29T22:40:45.315Z,100.00
2022-07-29T22:43:12.878Z,100.00
2022-07-29T22:45:40.103Z,100.00
2022-07-29T22:48:07.436Z,100.00
2022-07-29T22:50:34.707Z,98.19
2022-07-29T22:53:01.907Z,99.34
2022-07-29T22:55:29.125Z,96.49
2022-07-29T22:57:56.374Z,97.58
2022-07-29T23:00:23.981Z,99.03
2022-07-29T23:02:51.193Z,97.98
2022-07-29T23:05:18.548Z,99.02
2022-07-29T23:07:45.833Z,99.27
2022-07-29T23:10:13.161Z,99.86
2022-07-29T23:12:40.386Z,97.61
2022-07-29T23:15:07.873Z,97.87
2022-07-29T23:17:36.050Z,97.26
2022-07-29T23:20:09.936Z,95.98
2022-07-29T23:22:37.171Z,96.64
2022-07-29T23:25:06.182Z,96.94
2022-07-29T23:27:33.629Z,97.75
2022-07-29T23:30:00.883Z,98.22
2022-07-29T23:32:28.165Z,97.91
2022-07-29T23:34:55.463Z,98.68
2022-07-29T23:37:22.924Z,99.65
2022-07-29T23:39:50.237Z,100.00
2022-07-29T23:42:17.519Z,100.00
2022-07-29T23:44:44.748Z,100.00
2022-07-29T23:47:11.959Z,100.00
2022-07-29T23:49:39.364Z,100.00
2022-07-29T23:52:06.760Z,100.00
2022-07-29T23:54:34.015Z,100.00
2022-07-29T23:57:01.486Z,99.51
2022-07-29T23:59:28.970Z,99.62
